Saturday, August 02, 2014
04:37 UTC
  |  Log In   |  Register Free
Airport Search:

Lonesome Pine Airport
(KLNP)

Lonesome Pine Airport Diagram
No Airport Diagram Available

FAA data valid effective July 24, 2014 until September 18, 2014 (unless otherwise noted).

 
 
 
 
 
 
 
 
 
 
 
 
 
 

Current Aviation Weather for Lonesome Pine Airport (KLNP)

The most recent METAR observation for KLNP was updated at: 1835 UTC
METAR Summary (Translated METAR)
KLNP
281835Z AUTO 27008KT 10SM SCT027 BKN049 OVC060 21/13 A3000 RMK AO2
KVJI
(29.9 nm SE from KLNP)
281835Z AUTO 33007KT 10SM OVC065 23/15 A2996 RMK AO2 T02330147
TAF Summary (Translated TAF)
KTRI
(31.3 nm SE from KLNP)
011720Z 0118/0218 07004KT P6SM VCSH SCT035 BKN080 FM020000 00000KT P6SM SCT080 FM020500 00000KT 4SM BR SKC FM020700 00000KT 2SM BR SCT003 FM020900 00000KT 1/2SM FG BKN002 FM021300 00000KT 1SM BR BKN005 FM021400 00000KT 3SM BR BKN010 FM021500 00000KT P6SM SCT025
  Airport Weather Conditions for KLNP

 Current Weather at LNP
63° F
Fair
North winds at 0.0 mph
LNP NOAA Radar

Pressure: 30.18 in
Humidity: 73%
Wind: Calm
Dew Point: 53.6°F
Visibility: 10.00 mi


Airport Weather Forecast for KLNP

Translated METAR and TAF for KLNP
Translated METAR for KLNP (0430 UTC 02 August 2014)
found at http://aviationweather.gov/adds/metars/
 
METAR text: KLNP 020415Z AUTO 18004KT 10SM CLR 17/12 A3018 RMK AO2
Conditions at: KLNP (WISE/LONESOME PI, VA, US) observed 0415 UTC 02 August 2014
Temperature: 17.0°C (63°F)
Dewpoint: 12.0°C (54°F) [RH = 72%]
Pressure (altimeter): 30.18 inches Hg (1022.1 mb)
Winds: from the S (180 degrees) at 5 MPH (4 knots; 2.1 m/s)
Visibility: 10 or more miles (16+ km)
Ceiling: at least 12,000 feet AGL
Clouds: sky clear below 12,000 feet AGL
Weather: automated observation with no human augmentation;
there may or may not be significant weather present at this time
Translated TAF for KLNP

There is no translated TAF available for this airport

Find All Airport Services Find A Hotel Find A Rental Car Find A Golf Course Find A Restaurant $100 Hamburger



FBO's on the Field
FBO Company Facility Photos Services Transportation Aviation Fuel Prices: Prices include tax
Catering Weather Repair Courtesy Rental Type 100LL JetA JetA+ MOGAS 8087
 
Lonesome Pine Airport

This FBO has not yet been rated
FS:Shell
Last Updated: Jul-10
Login to update fuel prices
SS:
Contact Lonesome Pine AirportMore FBO Information
 
Add another FBO Facility Photos Catering Weather Repair Courtesy Rental Type 100LL JetA JetA+ MOGAS 8087
Services Transportation Aviation Fuel Prices: Prices include tax


GlobalAir.com Airport Resource Center model-print
model-print
model-print
model-print